createdAt,value
2023-03-22T00:02:04.459Z,91814.94
2023-03-22T00:04:31.299Z,91813.47
2023-03-22T00:06:57.820Z,91812.00
2023-03-22T00:09:24.365Z,91812.00
2023-03-22T00:11:51.148Z,91806.50
2023-03-22T00:14:20.572Z,91812.56
2023-03-22T00:16:49.105Z,91809.06
2023-03-22T00:19:17.460Z,91808.88
2023-03-22T00:21:44.341Z,91810.53
2023-03-22T00:24:11.041Z,91816.97
2023-03-22T00:26:37.804Z,91809.44
2023-03-22T00:29:05.030Z,91808.16
2023-03-22T00:31:31.901Z,91810.00
2023-03-22T00:33:58.676Z,91809.81
2023-03-22T00:36:25.218Z,91810.53
2023-03-22T00:38:51.953Z,91811.28
2023-03-22T00:41:23.742Z,91807.25
2023-03-22T00:43:51.201Z,91807.25
2023-03-22T00:46:20.388Z,91807.25
2023-03-22T00:48:47.703Z,91802.84
2023-03-22T00:51:14.824Z,91805.41
2023-03-22T00:53:43.331Z,91802.47
2023-03-22T00:56:13.838Z,91795.88
2023-03-22T00:58:40.937Z,91800.81
2023-03-22T01:01:08.227Z,91799.34
2023-03-22T01:03:35.107Z,91795.13
2023-03-22T01:06:01.671Z,91800.44
2023-03-22T01:08:33.111Z,91790.53
2023-03-22T01:11:01.282Z,91796.03
2023-03-22T01:13:28.991Z,91797.34
2023-03-22T01:15:56.222Z,91792.53
2023-03-22T01:18:22.824Z,91793.09
2023-03-22T01:20:49.379Z,91788.88
2023-03-22T01:23:15.930Z,91779.91
2023-03-22T01:25:42.514Z,91776.59
2023-03-22T01:28:09.784Z,91777.88
2023-03-22T01:30:38.578Z,91772.38
2023-03-22T01:33:07.556Z,91771.66
2023-03-22T01:35:36.072Z,91767.97
2023-03-22T01:38:03.114Z,91767.97
2023-03-22T01:40:29.662Z,91776.78
2023-03-22T01:42:56.437Z,91763.56
2023-03-22T01:45:22.875Z,91774.56
2023-03-22T01:47:57.911Z,91774.56
2023-03-22T01:50:25.864Z,91777.13
2023-03-22T01:52:53.417Z,91777.13
2023-03-22T01:55:22.833Z,91768.69
2023-03-22T01:57:50.902Z,91766.13
2023-03-22T02:00:18.993Z,91767.22
2023-03-22T02:02:49.057Z,91776.78
2023-03-22T02:05:16.943Z,91775.47
2023-03-22T02:07:45.474Z,91776.78
2023-03-22T02:10:18.239Z,91780.78
2023-03-22T02:13:13.781Z,91773.84
2023-03-22T02:16:25.465Z,91779.34
2023-03-22T02:19:08.530Z,91787.38
2023-03-22T02:21:54.628Z,91782.63
2023-03-22T02:24:55.541Z,91780.59
2023-03-22T02:27:40.912Z,91783.16
2023-03-22T02:30:30.615Z,91792.50
2023-03-22T02:33:12.607Z,91787.00
2023-03-22T02:36:09.676Z,91789.56
2023-03-22T02:38:58.505Z,91784.25
2023-03-22T02:41:40.939Z,91784.06
2023-03-22T02:44:26.482Z,91777.84
2023-03-22T02:47:07.651Z,91768.88
2023-03-22T02:49:37.816Z,91766.13
2023-03-22T02:52:19.028Z,91770.50
2023-03-22T02:54:52.971Z,91758.41
2023-03-22T02:57:29.874Z,91766.66
2023-03-22T02:59:59.007Z,91764.28
2023-03-22T03:02:27.556Z,91768.34
2023-03-22T03:04:56.057Z,91770.91
2023-03-22T03:07:26.782Z,91766.13
2023-03-22T03:09:54.127Z,91766.13
2023-03-22T03:12:26.208Z,91761.38
2023-03-22T03:14:52.929Z,91759.19
2023-03-22T03:17:34.501Z,91760.44
2023-03-22T03:20:37.179Z,91751.84
2023-03-22T03:23:13.628Z,91751.84
2023-03-22T03:25:46.240Z,91750.34
2023-03-22T03:28:45.167Z,91752.75
2023-03-22T03:31:33.398Z,91748.31
2023-03-22T03:34:13.593Z,91746.31
2023-03-22T03:36:43.411Z,91737.88
2023-03-22T03:39:12.477Z,91743.38
2023-03-22T03:41:42.566Z,91741.38
2023-03-22T03:44:10.098Z,91746.31
2023-03-22T03:46:36.645Z,91740.63
2023-03-22T03:49:05.146Z,91745.59
2023-03-22T03:51:33.301Z,91741.56
2023-03-22T03:53:59.792Z,91744.13
2023-03-22T03:56:26.336Z,91748.13
2023-03-22T03:58:52.799Z,91744.88
2023-03-22T04:01:20.747Z,91745.19
2023-03-22T04:03:50.596Z,91743.75
2023-03-22T04:06:17.210Z,91757.47
2023-03-22T04:08:45.517Z,91752.00
2023-03-22T04:11:12.052Z,91758.22
2023-03-22T04:13:38.510Z,91751.44
2023-03-22T04:16:05.823Z,91758.94
2023-03-22T04:18:32.420Z,91752.53
2023-03-22T04:20:58.968Z,91751.78
2023-03-22T04:23:25.987Z,91755.28
2023-03-22T04:25:52.580Z,91757.28
2023-03-22T04:28:21.762Z,91755.28
2023-03-22T04:30:51.962Z,91754.53
2023-03-22T04:33:19.588Z,91758.03
2023-03-22T04:35:48.722Z,91768.28
2023-03-22T04:38:15.315Z,91758.78
2023-03-22T04:40:46.622Z,91750.34
2023-03-22T04:43:13.920Z,91759.84
2023-03-22T04:45:42.120Z,91759.84
2023-03-22T04:48:10.618Z,91758.38
2023-03-22T04:50:38.641Z,91757.84
2023-03-22T04:53:06.133Z,91750.13
2023-03-22T04:55:34.181Z,91764.59
2023-03-22T04:58:01.049Z,91761.13
2023-03-22T05:00:30.194Z,91769.16
2023-03-22T05:02:57.801Z,91766.41
2023-03-22T05:05:24.439Z,91764.97
2023-03-22T05:07:51.127Z,91764.97
2023-03-22T05:10:17.661Z,91764.97
2023-03-22T05:12:44.184Z,91771.91
2023-03-22T05:15:10.894Z,91764.56
2023-03-22T05:17:37.356Z,91763.09
2023-03-22T05:20:09.424Z,91763.84
2023-03-22T05:22:40.458Z,91760.91
2023-03-22T05:25:09.109Z,91776.66
2023-03-22T05:27:38.860Z,91776.66
2023-03-22T05:30:06.521Z,91774.09
2023-03-22T05:32:33.026Z,91773.91
2023-03-22T05:35:04.721Z,91775.97
2023-03-22T05:37:31.680Z,91781.44
2023-03-22T05:39:58.209Z,91779.97
2023-03-22T05:42:24.701Z,91779.97
2023-03-22T05:44:51.376Z,91778.31
2023-03-22T05:47:17.874Z,91771.34
2023-03-22T05:49:44.382Z,91774.09
2023-03-22T05:52:10.874Z,91781.06
2023-03-22T05:54:37.345Z,91778.88
2023-03-22T05:57:04.274Z,91776.66
2023-03-22T05:59:30.945Z,91780.47
2023-03-22T06:01:57.484Z,91788.53
2023-03-22T06:04:24.044Z,91780.28
2023-03-22T06:06:50.622Z,91786.88
2023-03-22T06:09:17.973Z,91783.59
2023-03-22T06:11:44.782Z,91779.38
2023-03-22T06:14:11.400Z,91785.44
2023-03-22T06:16:37.972Z,91789.44
2023-03-22T06:19:04.559Z,91785.78
2023-03-22T06:21:31.077Z,91783.56
2023-03-22T06:23:57.619Z,91793.47
2023-03-22T06:26:24.133Z,91788.69
2023-03-22T06:28:50.862Z,91793.47
2023-03-22T06:31:17.441Z,91797.47
2023-03-22T06:33:45.447Z,91792.72
2023-03-22T06:36:11.886Z,91795.28
2023-03-22T06:38:38.430Z,91793.28
2023-03-22T06:41:05.305Z,91790.53
2023-03-22T06:43:31.815Z,91787.78
2023-03-22T06:45:58.398Z,91791.63
2023-03-22T06:48:25.210Z,91794.38
2023-03-22T06:50:51.770Z,91793.09
2023-03-22T06:53:18.306Z,91790.16
2023-03-22T06:55:44.816Z,91790.34
2023-03-22T06:58:11.451Z,91794.91
2023-03-22T07:00:39.014Z,91790.53
2023-03-22T07:03:05.816Z,91796.22
2023-03-22T07:05:32.399Z,91796.78
2023-03-22T07:07:58.951Z,91800.03
2023-03-22T07:10:25.845Z,91796.34
2023-03-22T07:12:52.361Z,91794.69
2023-03-22T07:15:20.136Z,91794.50
2023-03-22T07:17:46.631Z,91789.38
2023-03-22T07:20:13.238Z,91793.41
2023-03-22T07:22:39.715Z,91796.34
2023-03-22T07:25:06.517Z,91791.25
2023-03-22T07:27:33.004Z,91794.38
2023-03-22T07:29:59.534Z,91790.72
2023-03-22T07:32:26.076Z,91790.56
2023-03-22T07:34:52.608Z,91786.91
2023-03-22T07:37:19.148Z,91781.81
2023-03-22T07:39:45.644Z,91782.91
2023-03-22T07:42:12.244Z,91783.50
2023-03-22T07:44:38.757Z,91777.66
2023-03-22T07:47:05.443Z,91778.22
2023-03-22T07:49:32.214Z,91777.84
2023-03-22T07:51:58.770Z,91775.66
2023-03-22T07:54:33.455Z,91775.31
2023-03-22T07:57:01.327Z,91776.41
2023-03-22T07:59:28.008Z,91779.34
2023-03-22T08:01:54.652Z,91768.91
2023-03-22T08:04:22.499Z,91770.00
2023-03-22T08:06:49.820Z,91769.47
2023-03-22T08:09:16.721Z,91767.09
2023-03-22T08:11:43.311Z,91769.84
2023-03-22T08:14:10.029Z,91759.03
2023-03-22T08:16:36.794Z,91768.75
2023-03-22T08:19:03.340Z,91766.00
2023-03-22T08:21:29.863Z,91761.78
2023-03-22T08:23:56.435Z,91764.72
2023-03-22T08:26:23.300Z,91770.22
2023-03-22T08:28:49.821Z,91760.66
2023-03-22T08:31:17.149Z,91753.91
2023-03-22T08:33:44.872Z,91748.59
2023-03-22T08:36:16.384Z,91747.47
2023-03-22T08:38:43.035Z,91746.72
2023-03-22T08:41:09.582Z,91748.22
2023-03-22T08:43:36.071Z,91741.97
2023-03-22T08:46:02.784Z,91738.66
2023-03-22T08:48:30.749Z,91733.91
2023-03-22T08:50:57.847Z,91724.72
2023-03-22T08:53:24.342Z,91717.41
2023-03-22T08:55:50.968Z,91714.84
2023-03-22T08:58:19.739Z,91719.22
2023-03-22T09:00:49.421Z,91716.66
2023-03-22T09:03:17.265Z,91715.56
2023-03-22T09:05:44.102Z,91706.75
2023-03-22T09:08:18.586Z,91702.72
2023-03-22T09:10:51.191Z,91690.97
2023-03-22T09:13:18.020Z,91702.16
2023-03-22T09:15:47.571Z,91693.91
2023-03-22T09:18:15.284Z,91688.41
2023-03-22T09:20:42.914Z,91688.41
2023-03-22T09:23:09.643Z,91683.47
2023-03-22T09:25:36.680Z,91673.00
2023-03-22T09:28:04.145Z,91675.94
2023-03-22T09:30:30.914Z,91669.16
2023-03-22T09:32:57.436Z,91678.13
2023-03-22T09:35:24.194Z,91666.41
2023-03-22T09:37:53.334Z,91661.06
2023-03-22T09:40:20.968Z,91652.81
2023-03-22T09:42:54.839Z,91648.59
2023-03-22T09:45:35.149Z,91645.84
2023-03-22T09:48:05.592Z,91637.06
2023-03-22T09:50:33.412Z,91627.88
2023-03-22T09:53:00.769Z,91622.56
2023-03-22T09:55:30.310Z,91615.75
2023-03-22T09:58:10.465Z,91612.44
2023-03-22T10:00:48.221Z,91606.22
2023-03-22T10:03:29.332Z,91603.66
2023-03-22T10:06:09.953Z,91598.16
2023-03-22T10:09:09.139Z,91589.88
2023-03-22T10:11:46.190Z,91581.63
2023-03-22T10:14:18.600Z,91582.91
2023-03-22T10:16:46.772Z,91575.41
2023-03-22T10:19:35.929Z,91570.78
2023-03-22T10:22:04.875Z,91572.44
2023-03-22T10:24:38.440Z,91556.09
2023-03-22T10:27:17.184Z,91556.25
2023-03-22T10:29:48.824Z,91553.69
2023-03-22T10:32:56.805Z,91551.13
2023-03-22T10:35:24.401Z,91545.78
2023-03-22T10:37:52.856Z,91536.06
2023-03-22T10:40:28.947Z,91539.16
2023-03-22T10:42:59.642Z,91532.38
2023-03-22T10:45:27.720Z,91529.06
2023-03-22T10:48:26.724Z,91524.28
2023-03-22T10:50:54.553Z,91518.78
2023-03-22T10:53:37.302Z,91520.25
2023-03-22T10:56:05.158Z,91512.16
2023-03-22T10:58:34.698Z,91509.41
2023-03-22T11:01:11.149Z,91505.91
2023-03-22T11:03:37.662Z,91498.41
2023-03-22T11:06:11.241Z,91501.16
2023-03-22T11:08:48.025Z,91494.91
2023-03-22T11:11:35.045Z,91493.63
2023-03-22T11:14:13.168Z,91486.09
2023-03-22T11:16:50.427Z,91473.97
2023-03-22T11:19:26.608Z,91476.72
2023-03-22T11:21:54.744Z,91457.44
2023-03-22T11:24:25.903Z,91463.13
2023-03-22T11:27:03.104Z,91454.88
2023-03-22T11:29:39.954Z,91451.56
2023-03-22T11:32:29.689Z,91448.06
2023-03-22T11:35:05.039Z,91438.53
2023-03-22T11:37:31.669Z,91431.72
2023-03-22T11:40:04.884Z,91437.22
2023-03-22T11:42:34.331Z,91428.41
2023-03-22T11:45:01.053Z,91423.63
2023-03-22T11:47:34.644Z,91420.09
2023-03-22T11:50:05.422Z,91414.38
2023-03-22T11:52:31.982Z,91415.41
2023-03-22T11:55:00.197Z,91407.31
2023-03-22T11:57:30.346Z,91415.03
2023-03-22T12:00:11.847Z,91399.25
2023-03-22T12:02:44.977Z,91395.19
2023-03-22T12:05:18.954Z,91389.69
2023-03-22T12:07:46.159Z,91389.69
2023-03-22T12:10:25.080Z,91381.44
2023-03-22T12:12:58.223Z,91377.22
2023-03-22T12:15:33.144Z,91374.66
2023-03-22T12:18:08.652Z,91370.41
2023-03-22T12:20:42.669Z,91364.91
2023-03-22T12:23:15.868Z,91349.69
2023-03-22T12:25:48.525Z,91347.28
2023-03-22T12:28:19.404Z,91345.78
2023-03-22T12:30:54.089Z,91336.97
2023-03-22T12:33:28.630Z,91340.63
2023-03-22T12:36:02.475Z,91332.34
2023-03-22T12:38:58.790Z,91338.03
2023-03-22T12:41:31.401Z,91325.72
2023-03-22T12:44:03.055Z,91323.13
2023-03-22T12:46:34.208Z,91319.81
2023-03-22T12:49:06.510Z,91316.50
2023-03-22T12:51:32.994Z,91319.56
2023-03-22T12:54:01.151Z,91312.78
2023-03-22T12:56:31.859Z,91304.66
2023-03-22T12:59:03.580Z,91307.56
2023-03-22T13:01:35.973Z,91293.97
2023-03-22T13:04:25.722Z,91300.94
2023-03-22T13:06:53.479Z,91292.84
2023-03-22T13:09:29.621Z,91292.84
2023-03-22T13:12:18.077Z,91299.78
2023-03-22T13:14:50.497Z,91288.78
2023-03-22T13:17:23.001Z,91292.09
2023-03-22T13:20:13.637Z,91284.56
2023-03-22T13:22:43.009Z,91286.59
2023-03-22T13:25:29.086Z,91277.00
2023-03-22T13:28:22.887Z,91270.78
2023-03-22T13:30:54.720Z,91263.81
2023-03-22T13:33:28.979Z,91265.91
2023-03-22T13:36:22.993Z,91267.50
2023-03-22T13:39:12.356Z,91261.50
2023-03-22T13:41:39.240Z,91254.84
2023-03-22T13:44:24.507Z,91253.34
2023-03-22T13:46:52.776Z,91251.91
2023-03-22T13:49:40.853Z,91246.06
2023-03-22T13:52:09.540Z,91243.16
2023-03-22T13:54:48.157Z,91240.97
2023-03-22T13:57:58.845Z,91245.63
2023-03-22T14:00:31.533Z,91239.22
2023-03-22T14:03:02.312Z,91229.34
2023-03-22T14:05:32.211Z,91225.09
2023-03-22T14:08:00.665Z,91229.00
2023-03-22T14:10:37.127Z,91228.28
2023-03-22T14:13:34.790Z,91225.34
2023-03-22T14:16:29.865Z,91232.19
2023-03-22T14:18:56.846Z,91223.91
2023-03-22T14:21:33.572Z,91223.91
